Time;durP1;ratioP1;P1;durP2;ratioP2;P2;SDS_P1;SDS_P2;PMS_P1;PMS_P2;Temp;Humidity;BMP_temperature;BMP_pressure;BME280_temperature;BME280_humidity;BME280_pressure;Samples;Min_cycle;Max_cycle;Signal;HPM_P1;HPM_P2
2021/09/08 00:00:48;;;;;;;;;;;17.60;99.90;;;;;;4969409;28;19929;-81
2021/09/08 00:03:15;;;;;;;;;;;17.60;99.90;;;;;;4969302;28;19996;-82
2021/09/08 00:05:43;;;;;;;;;;;17.60;99.90;;;;;;4967743;28;20440;-81
2021/09/08 00:08:10;;;;;;;;;;;17.60;99.90;;;;;;4968462;28;20045;-81
2021/09/08 00:10:36;;;;;;;;;;;17.50;99.90;;;;;;4969578;28;19936;-81
2021/09/08 00:13:03;;;;;;;;;;;17.50;99.90;;;;;;4974963;28;19930;-80
2021/09/08 00:15:30;;;;;;;;;;;17.40;99.90;;;;;;4966738;28;20021;-80
2021/09/08 00:17:56;;;;;;;;;;;17.40;99.90;;;;;;4966767;28;20242;-80
2021/09/08 00:20:23;;;;;;;;;;;17.40;99.90;;;;;;4964981;28;19940;-79
2021/09/08 00:22:51;;;;;;;;;;;17.40;99.90;;;;;;4966770;28;19933;-80
2021/09/08 00:25:18;;;;;;;;;;;17.30;99.90;;;;;;4966872;28;20509;-80
2021/09/08 00:27:45;;;;;;;;;;;17.30;99.90;;;;;;4966182;28;20013;-80
2021/09/08 00:30:12;;;;;;;;;;;17.30;99.90;;;;;;4965898;28;20587;-80
2021/09/08 00:32:39;;;;;;;;;;;17.20;99.90;;;;;;4967407;28;20305;-80
2021/09/08 00:35:06;;;;;;;;;;;17.20;99.90;;;;;;4967141;28;20424;-80
2021/09/08 00:37:33;;;;;;;;;;;17.20;99.90;;;;;;4967440;28;19930;-80
2021/09/08 00:40:01;;;;;;;;;;;17.10;99.90;;;;;;4966036;28;19926;-80
2021/09/08 00:42:28;;;;;;;;;;;17.10;99.90;;;;;;4965985;28;19934;-80
2021/09/08 00:44:55;;;;;;;;;;;17.10;99.90;;;;;;4965576;28;19944;-79
2021/09/08 00:47:21;;;;;;;;;;;17.00;99.90;;;;;;4967350;28;19933;-80
2021/09/08 00:49:48;;;;;;;;;;;17.00;99.90;;;;;;4965354;28;19974;-80
2021/09/08 00:52:16;;;;;;;;;;;16.90;99.90;;;;;;4972242;28;19949;-80
2021/09/08 00:54:46;;;;;;;;;;;16.90;99.90;;;;;;4966262;28;19927;-79
2021/09/08 00:57:15;;;;;;;;;;;16.90;99.90;;;;;;4967012;28;20296;-79
2021/09/08 00:59:42;;;;;;;;;;;16.80;99.90;;;;;;4969123;28;19941;-79
2021/09/08 01:02:09;;;;;;;;;;;16.80;99.90;;;;;;4966363;28;19926;-80
2021/09/08 01:04:35;;;;;;;;;;;16.80;99.90;;;;;;4965955;28;20400;-80
2021/09/08 01:07:04;;;;;;;;;;;16.70;99.90;;;;;;4968337;28;19930;-80
2021/09/08 01:09:31;;;;;;;;;;;16.70;99.90;;;;;;4967666;28;19926;-79
2021/09/08 01:11:58;;;;;;;;;;;16.70;99.90;;;;;;4965804;28;19933;-81
2021/09/08 01:14:26;;;;;;;;;;;16.60;99.90;;;;;;4961854;28;19934;-80
2021/09/08 01:16:53;;;;;;;;;;;16.50;99.90;;;;;;4965056;28;19933;-81
2021/09/08 01:19:20;;;;;;;;;;;16.50;99.90;;;;;;4964455;28;19936;-80
2021/09/08 01:21:47;;;;;;;;;;;16.50;99.90;;;;;;4965531;28;20025;-81
2021/09/08 01:24:15;;;;;;;;;;;16.50;99.90;;;;;;4963857;28;19926;-81
2021/09/08 01:26:43;;;;;;;;;;;16.50;99.90;;;;;;4965456;28;19952;-81
2021/09/08 01:29:10;;;;;;;;;;;16.20;99.90;;;;;;4964216;28;19926;-82
2021/09/08 01:31:37;;;;;;;;;;;16.50;99.90;;;;;;4965377;28;19937;-81
2021/09/08 01:34:04;;;;;;;;;;;16.50;99.90;;;;;;4963066;28;19933;-80
2021/09/08 01:36:36;;;;;;;;;;;16.80;99.90;;;;;;4967462;28;19948;-81
2021/09/08 01:39:03;;;;;;;;;;;16.40;99.90;;;;;;4965987;28;20420;-81
2021/09/08 01:41:31;;;;;;;;;;;16.50;99.90;;;;;;4964821;28;19980;-80
2021/09/08 01:43:58;;;;;;;;;;;16.30;99.90;;;;;;4962466;28;19934;-80
2021/09/08 01:46:24;;;;;;;;;;;16.30;99.90;;;;;;4964901;28;20300;-81
2021/09/08 01:48:51;;;;;;;;;;;16.30;99.90;;;;;;4970227;28;20400;-81
2021/09/08 01:51:17;;;;;;;;;;;16.40;99.90;;;;;;4964950;28;20371;-80
2021/09/08 01:53:44;;;;;;;;;;;16.40;99.90;;;;;;4964184;28;19926;-80
2021/09/08 01:56:11;;;;;;;;;;;16.10;99.90;;;;;;4965001;28;19935;-80
2021/09/08 01:58:39;;;;;;;;;;;16.10;99.90;;;;;;4973324;28;19929;-80
2021/09/08 02:01:06;;;;;;;;;;;16.00;99.90;;;;;;4966111;28;20016;-80
2021/09/08 02:03:32;;;;;;;;;;;16.00;99.90;;;;;;4968009;28;19930;-80
2021/09/08 02:05:59;;;;;;;;;;;16.00;99.90;;;;;;4966560;28;19930;-80
2021/09/08 02:08:26;;;;;;;;;;;15.90;99.90;;;;;;4969237;28;19933;-81
2021/09/08 02:10:52;;;;;;;;;;;16.10;99.90;;;;;;4966818;28;20013;-80
2021/09/08 02:13:19;;;;;;;;;;;15.80;99.90;;;;;;4967434;28;20545;-79
2021/09/08 02:15:47;;;;;;;;;;;15.90;99.90;;;;;;4965556;28;20544;-79
2021/09/08 02:18:14;;;;;;;;;;;15.80;99.90;;;;;;4969260;28;20020;-79
2021/09/08 02:20:40;;;;;;;;;;;15.80;99.90;;;;;;4966525;28;20516;-80
2021/09/08 02:23:07;;;;;;;;;;;15.90;99.90;;;;;;4967748;28;19933;-80
2021/09/08 02:25:34;;;;;;;;;;;15.80;99.90;;;;;;4969010;28;19932;-80
2021/09/08 02:28:01;;;;;;;;;;;15.70;99.90;;;;;;4968069;28;19930;-80
2021/09/08 02:30:28;;;;;;;;;;;15.70;99.90;;;;;;4965851;28;19941;-80
2021/09/08 02:32:56;;;;;;;;;;;15.70;99.90;;;;;;4967715;28;19933;-80
2021/09/08 02:35:23;;;;;;;;;;;15.70;99.90;;;;;;4967171;28;19940;-80
2021/09/08 02:37:49;;;;;;;;;;;15.70;99.90;;;;;;4967920;28;20597;-80
2021/09/08 02:40:16;;;;;;;;;;;15.70;99.90;;;;;;4967963;28;20308;-80
2021/09/08 02:42:43;;;;;;;;;;;15.50;99.90;;;;;;4966747;28;20380;-81
2021/09/08 02:45:10;;;;;;;;;;;15.60;99.90;;;;;;4966939;28;19937;-81
2021/09/08 02:47:36;;;;;;;;;;;15.50;99.90;;;;;;4969119;28;20921;-80
2021/09/08 02:50:05;;;;;;;;;;;15.50;99.90;;;;;;4967966;28;19944;-80
2021/09/08 02:52:32;;;;;;;;;;;15.40;99.90;;;;;;4966896;28;19937;-81
2021/09/08 02:54:58;;;;;;;;;;;15.40;99.90;;;;;;4968506;28;20019;-80
2021/09/08 02:57:25;;;;;;;;;;;15.40;99.90;;;;;;4967748;28;20265;-80
2021/09/08 02:59:52;;;;;;;;;;;15.40;99.90;;;;;;4965289;28;20324;-81
2021/09/08 03:02:18;;;;;;;;;;;15.40;99.90;;;;;;4966746;28;19952;-80
2021/09/08 03:04:45;;;;;;;;;;;15.30;99.90;;;;;;4966784;28;19945;-80
2021/09/08 03:07:13;;;;;;;;;;;15.30;99.90;;;;;;4967985;28;20139;-81
2021/09/08 03:09:40;;;;;;;;;;;15.30;99.90;;;;;;4967895;28;19926;-82
2021/09/08 03:12:07;;;;;;;;;;;15.30;99.90;;;;;;4968713;28;19926;-81
2021/09/08 03:14:33;;;;;;;;;;;15.20;99.90;;;;;;4965699;28;19937;-81
2021/09/08 03:17:00;;;;;;;;;;;15.20;99.90;;;;;;4970605;28;19932;-81
2021/09/08 03:19:27;;;;;;;;;;;15.30;99.90;;;;;;4966011;28;19977;-81
2021/09/08 03:21:53;;;;;;;;;;;15.20;99.90;;;;;;4965382;28;19926;-82
2021/09/08 03:24:21;;;;;;;;;;;15.20;99.90;;;;;;4965220;28;19934;-82
2021/09/08 03:26:48;;;;;;;;;;;15.10;99.90;;;;;;4964769;28;19926;-82
2021/09/08 03:29:14;;;;;;;;;;;15.20;99.90;;;;;;4965586;28;19933;-82
2021/09/08 03:31:41;;;;;;;;;;;15.10;99.90;;;;;;4965221;28;19977;-81
2021/09/08 03:34:08;;;;;;;;;;;15.10;99.90;;;;;;4964917;28;22722;-82
2021/09/08 03:36:34;;;;;;;;;;;15.10;99.90;;;;;;4966539;28;20715;-81
2021/09/08 03:39:01;;;;;;;;;;;15.10;99.90;;;;;;4964861;28;19930;-81
2021/09/08 03:41:29;;;;;;;;;;;15.10;99.90;;;;;;4965832;28;19945;-82
2021/09/08 03:43:56;;;;;;;;;;;15.10;99.90;;;;;;4964996;28;19930;-82
2021/09/08 03:46:23;;;;;;;;;;;15.10;99.90;;;;;;4965418;28;19934;-82
2021/09/08 03:48:49;;;;;;;;;;;15.10;99.90;;;;;;4967566;28;19926;-82
2021/09/08 03:51:16;;;;;;;;;;;15.10;99.90;;;;;;4964773;28;20401;-82
2021/09/08 03:53:43;;;;;;;;;;;15.20;99.90;;;;;;4966463;28;20373;-82
2021/09/08 03:56:09;;;;;;;;;;;15.10;99.90;;;;;;4966113;28;19926;-83
2021/09/08 03:58:37;;;;;;;;;;;15.10;99.90;;;;;;4966421;28;19936;-83
2021/09/08 04:01:04;;;;;;;;;;;15.10;99.90;;;;;;4968316;28;19937;-82
2021/09/08 04:03:31;;;;;;;;;;;15.00;99.90;;;;;;4965935;28;20399;-82
2021/09/08 04:05:57;;;;;;;;;;;15.00;99.90;;;;;;4963513;28;20498;-82
2021/09/08 04:08:24;;;;;;;;;;;14.90;99.90;;;;;;4966004;28;20022;-82
2021/09/08 04:10:51;;;;;;;;;;;14.90;99.90;;;;;;4964836;28;19930;-82
2021/09/08 04:13:17;;;;;;;;;;;14.90;99.90;;;;;;4966119;28;19944;-83
2021/09/08 04:15:45;;;;;;;;;;;14.90;99.90;;;;;;4964911;28;19936;-84
2021/09/08 04:18:12;;;;;;;;;;;14.90;99.90;;;;;;4966406;28;19934;-83
2021/09/08 04:20:38;;;;;;;;;;;14.90;99.90;;;;;;4965386;28;19930;-83
2021/09/08 04:23:05;;;;;;;;;;;14.90;99.90;;;;;;4966094;28;20375;-80
2021/09/08 04:25:32;;;;;;;;;;;14.90;99.90;;;;;;4965133;28;19969;-83
2021/09/08 04:27:58;;;;;;;;;;;15.00;99.90;;;;;;4965892;28;19930;-82
2021/09/08 04:30:25;;;;;;;;;;;14.90;99.90;;;;;;4965409;28;20588;-83
2021/09/08 04:32:53;;;;;;;;;;;14.80;99.90;;;;;;4964671;28;20524;-83
2021/09/08 04:35:20;;;;;;;;;;;14.80;99.90;;;;;;4967032;28;19930;-84
2021/09/08 04:37:46;;;;;;;;;;;14.80;99.90;;;;;;4967070;28;20384;-84
2021/09/08 04:40:14;;;;;;;;;;;14.80;99.90;;;;;;4968151;28;20783;-84
2021/09/08 04:42:40;;;;;;;;;;;14.80;99.90;;;;;;4965377;28;19934;-85
2021/09/08 04:45:07;;;;;;;;;;;14.80;99.90;;;;;;4965014;28;19930;-84
2021/09/08 04:47:34;;;;;;;;;;;14.80;99.90;;;;;;4967646;28;20257;-84
2021/09/08 04:50:02;;;;;;;;;;;14.90;99.90;;;;;;4968123;28;19934;-84
2021/09/08 04:52:30;;;;;;;;;;;14.70;99.90;;;;;;4965573;28;19933;-84
2021/09/08 04:54:56;;;;;;;;;;;14.70;99.90;;;;;;4965318;28;19925;-84
2021/09/08 04:57:23;;;;;;;;;;;14.70;99.90;;;;;;4967529;28;19934;-83
2021/09/08 04:59:50;;;;;;;;;;;14.80;99.90;;;;;;4964375;28;19933;-83
2021/09/08 05:02:16;;;;;;;;;;;14.70;99.90;;;;;;4965490;28;20175;-82
2021/09/08 05:04:43;;;;;;;;;;;14.70;99.90;;;;;;4971736;28;19934;-82
2021/09/08 05:07:11;;;;;;;;;;;14.70;99.90;;;;;;4965098;28;20037;-83
2021/09/08 05:09:38;;;;;;;;;;;14.70;99.90;;;;;;4963394;28;19930;-82
2021/09/08 05:12:05;;;;;;;;;;;14.70;99.90;;;;;;4967195;28;19930;-88
2021/09/08 05:14:31;;;;;;;;;;;14.70;99.90;;;;;;4967898;28;19959;-88
2021/09/08 05:16:58;;;;;;;;;;;14.70;99.90;;;;;;4967610;28;19930;-87
2021/09/08 05:19:25;;;;;;;;;;;14.70;99.90;;;;;;4968160;28;19934;-85
2021/09/08 05:21:51;;;;;;;;;;;14.80;99.90;;;;;;4971844;28;20024;-88
2021/09/08 05:24:19;;;;;;;;;;;14.70;99.90;;;;;;4968827;28;19937;-88
2021/09/08 05:26:47;;;;;;;;;;;14.80;99.90;;;;;;4978416;28;20025;-88
2021/09/08 05:29:15;;;;;;;;;;;14.80;99.90;;;;;;4967796;28;19934;-87
2021/09/08 05:31:41;;;;;;;;;;;14.80;99.90;;;;;;4971252;28;19934;-88
2021/09/08 05:34:08;;;;;;;;;;;14.90;99.90;;;;;;4972153;28;19933;-87
2021/09/08 05:36:35;;;;;;;;;;;14.80;99.90;;;;;;4972958;28;19932;-87
2021/09/08 05:39:01;;;;;;;;;;;14.80;99.90;;;;;;4972769;28;19934;-88
2021/09/08 05:41:31;;;;;;;;;;;14.80;99.90;;;;;;4973737;28;20027;-88
2021/09/08 05:43:57;;;;;;;;;;;14.80;99.90;;;;;;4972267;28;19934;-89
2021/09/08 05:46:24;;;;;;;;;;;14.80;99.90;;;;;;4971254;28;19932;-88
2021/09/08 05:48:51;;;;;;;;;;;14.90;99.90;;;;;;4977182;28;20036;-87
2021/09/08 05:51:17;;;;;;;;;;;14.90;99.90;;;;;;4971309;28;19926;-87
2021/09/08 05:53:44;;;;;;;;;;;14.90;99.90;;;;;;4968449;28;20289;-87
2021/09/08 05:56:11;;;;;;;;;;;15.00;99.90;;;;;;4970132;28;20029;-89
2021/09/08 05:58:39;;;;;;;;;;;15.10;99.90;;;;;;4974469;28;19932;-87
2021/09/08 06:01:06;;;;;;;;;;;15.10;99.90;;;;;;4970116;28;20116;-87
2021/09/08 06:03:33;;;;;;;;;;;15.30;99.90;;;;;;4973520;28;19934;-87
2021/09/08 06:06:00;;;;;;;;;;;15.20;99.90;;;;;;4969161;28;20009;-88
2021/09/08 06:08:28;;;;;;;;;;;15.30;99.90;;;;;;4976584;28;20125;-90
2021/09/08 06:10:54;;;;;;;;;;;15.30;99.90;;;;;;4974815;28;19968;-89
2021/09/08 06:13:21;;;;;;;;;;;14.80;99.90;;;;;;4972797;28;20304;-90
2021/09/08 06:15:50;;;;;;;;;;;15.40;99.90;;;;;;4975086;28;19934;-89
2021/09/08 06:18:17;;;;;;;;;;;15.50;99.90;;;;;;4978022;28;19926;-91
2021/09/08 06:20:43;;;;;;;;;;;15.50;99.90;;;;;;4992441;28;20018;-90
2021/09/08 06:23:11;;;;;;;;;;;15.60;99.90;;;;;;4989235;28;20001;-88
2021/09/08 06:25:38;;;;;;;;;;;15.60;99.90;;;;;;4988725;28;19926;-88
2021/09/08 06:28:05;;;;;;;;;;;15.70;99.90;;;;;;4987396;28;19926;-89
2021/09/08 06:30:31;;;;;;;;;;;15.70;99.90;;;;;;4990149;28;19930;-89
2021/09/08 06:33:00;;;;;;;;;;;15.80;99.90;;;;;;4986967;28;19934;-88
2021/09/08 06:35:26;;;;;;;;;;;15.90;99.90;;;;;;4983772;28;19973;-87
2021/09/08 06:37:53;;;;;;;;;;;16.00;99.90;;;;;;4976697;28;20373;-87
2021/09/08 06:40:20;;;;;;;;;;;16.10;99.90;;;;;;4986374;28;19926;-86
2021/09/08 06:42:46;;;;;;;;;;;16.20;99.90;;;;;;4978542;28;19932;-86
2021/09/08 06:45:13;;;;;;;;;;;16.20;99.90;;;;;;4987982;28;19932;-87
2021/09/08 06:47:40;;;;;;;;;;;16.20;99.90;;;;;;4976491;28;19926;-86
2021/09/08 06:50:08;;;;;;;;;;;16.30;99.90;;;;;;4979738;28;19926;-84
2021/09/08 06:52:35;;;;;;;;;;;16.30;99.90;;;;;;4988029;28;19980;-81
2021/09/08 06:55:02;;;;;;;;;;;16.40;99.90;;;;;;4980574;28;19933;-85
2021/09/08 06:57:29;;;;;;;;;;;16.50;99.90;;;;;;4976192;28;19951;-83
2021/09/08 06:59:56;;;;;;;;;;;16.60;99.90;;;;;;4974124;28;19930;-82
2021/09/08 07:02:22;;;;;;;;;;;16.70;99.90;;;;;;4994849;28;19989;-82
2021/09/08 07:04:49;;;;;;;;;;;16.80;99.90;;;;;;4985102;28;19926;-84
2021/09/08 07:07:20;;;;;;;;;;;16.90;99.90;;;;;;4981539;28;19980;-89
2021/09/08 07:09:47;;;;;;;;;;;17.00;99.90;;;;;;4978695;28;20589;-80
2021/09/08 07:12:13;;;;;;;;;;;17.00;99.90;;;;;;4980607;28;20021;-85
2021/09/08 07:14:40;;;;;;;;;;;17.00;99.90;;;;;;4978064;28;19952;-82
2021/09/08 07:17:07;;;;;;;;;;;17.50;99.90;;;;;;4984047;28;20033;-82
2021/09/08 07:19:33;;;;;;;;;;;17.30;99.90;;;;;;4980020;28;20821;-84
2021/09/08 07:22:00;;;;;;;;;;;17.80;99.90;;;;;;4984989;28;20245;-82
2021/09/08 07:24:28;;;;;;;;;;;19.40;99.90;;;;;;4983345;28;19930;-82
2021/09/08 07:26:57;;;;;;;;;;;21.30;99.90;;;;;;4987724;28;20016;-83
2021/09/08 07:29:24;;;;;;;;;;;21.70;99.90;;;;;;4987319;28;20406;-82
2021/09/08 07:31:50;;;;;;;;;;;22.00;99.90;;;;;;4988151;28;20013;-85
2021/09/08 07:34:17;;;;;;;;;;;22.80;99.90;;;;;;4984788;28;19936;-83
2021/09/08 07:36:44;;;;;;;;;;;22.90;99.90;;;;;;4980410;28;20024;-81
2021/09/08 07:39:10;;;;;;;;;;;23.00;99.90;;;;;;4983379;28;20012;-81
2021/09/08 07:41:38;;;;;;;;;;;23.20;99.90;;;;;;4981383;28;19926;-81
2021/09/08 07:44:05;;;;;;;;;;;23.50;99.90;;;;;;4975103;28;20384;-84
2021/09/08 07:46:32;;;;;;;;;;;22.90;99.90;;;;;;4977644;28;20017;-83
2021/09/08 07:48:59;;;;;;;;;;;23.50;99.90;;;;;;4981042;28;19927;-84
2021/09/08 07:51:25;;;;;;;;;;;24.70;99.90;;;;;;4976542;28;19930;-82
2021/09/08 07:53:52;;;;;;;;;;;25.70;99.90;;;;;;4976682;28;19930;-82
2021/09/08 07:56:19;;;;;;;;;;;26.00;99.90;;;;;;4974428;28;19934;-82
2021/09/08 07:58:47;;;;;;;;;;;27.40;99.90;;;;;;4981661;28;20017;-79
2021/09/08 08:01:14;;;;;;;;;;;26.20;99.90;;;;;;4982288;28;19940;-82
2021/09/08 08:03:40;;;;;;;;;;;24.90;99.90;;;;;;4981378;28;20020;-79
2021/09/08 08:06:07;;;;;;;;;;;25.10;99.90;;;;;;4977900;28;20014;-84
2021/09/08 08:08:34;;;;;;;;;;;25.30;99.90;;;;;;4980730;28;20377;-83
2021/09/08 08:11:00;;;;;;;;;;;26.00;99.90;;;;;;4987630;28;19936;-82
2021/09/08 08:13:27;;;;;;;;;;;26.90;99.90;;;;;;4981013;28;19925;-83
2021/09/08 08:15:55;;;;;;;;;;;26.70;99.90;;;;;;4978635;28;19926;-84
2021/09/08 08:18:22;;;;;;;;;;;27.10;99.90;;;;;;4974937;28;20048;-83
2021/09/08 08:20:48;;;;;;;;;;;25.90;99.90;;;;;;4984441;28;19944;-80
2021/09/08 08:23:15;;;;;;;;;;;25.60;99.90;;;;;;4976057;28;19934;-81
2021/09/08 08:25:42;;;;;;;;;;;25.70;99.90;;;;;;4982131;28;19926;-81
2021/09/08 08:28:09;;;;;;;;;;;25.80;99.90;;;;;;4983565;28;19926;-83
2021/09/08 08:30:36;;;;;;;;;;;26.10;99.90;;;;;;4981231;28;19926;-83
2021/09/08 08:33:04;;;;;;;;;;;28.10;99.90;;;;;;4976862;28;19969;-83
2021/09/08 08:35:31;;;;;;;;;;;26.50;99.90;;;;;;4978994;28;19934;-83
2021/09/08 08:37:58;;;;;;;;;;;25.70;99.90;;;;;;4974341;28;19926;-83
2021/09/08 08:40:25;;;;;;;;;;;25.70;99.90;;;;;;4980746;28;19973;-83
2021/09/08 08:42:52;;;;;;;;;;;26.10;99.90;;;;;;4977122;28;19932;-88
2021/09/08 08:45:18;;;;;;;;;;;26.20;99.90;;;;;;4973775;28;20235;-81
2021/09/08 08:47:45;;;;;;;;;;;25.60;99.90;;;;;;4983166;28;19932;-83
2021/09/08 08:50:14;;;;;;;;;;;26.70;99.90;;;;;;4976213;28;20028;-85
2021/09/08 08:52:41;;;;;;;;;;;27.20;99.90;;;;;;4984196;28;19926;-83
2021/09/08 08:55:08;;;;;;;;;;;28.10;99.50;;;;;;4982188;28;19934;-79
2021/09/08 08:57:35;;;;;;;;;;;27.70;99.90;;;;;;4976372;28;20393;-81
2021/09/08 09:00:01;;;;;;;;;;;26.80;99.90;;;;;;4983465;28;20017;-82
2021/09/08 09:02:30;;;;;;;;;;;26.00;99.90;;;;;;4978007;28;19936;-83
2021/09/08 09:04:58;;;;;;;;;;;25.70;99.90;;;;;;4984756;28;19933;-86
2021/09/08 09:07:27;;;;;;;;;;;25.80;99.90;;;;;;4982665;28;20379;-85
2021/09/08 09:09:54;;;;;;;;;;;25.90;99.90;;;;;;4977965;28;19926;-81
2021/09/08 09:12:24;;;;;;;;;;;26.10;99.90;;;;;;4976804;28;19934;-78
2021/09/08 09:14:51;;;;;;;;;;;26.30;99.90;;;;;;4981919;28;19926;-81
2021/09/08 09:17:19;;;;;;;;;;;26.90;99.90;;;;;;4979631;28;20013;-80
2021/09/08 09:19:46;;;;;;;;;;;26.90;99.90;;;;;;4980879;28;19937;-82
2021/09/08 09:22:13;;;;;;;;;;;25.70;99.90;;;;;;4976434;28;19965;-79
2021/09/08 09:24:42;;;;;;;;;;;27.20;99.90;;;;;;4981108;28;19926;-81
2021/09/08 09:27:11;;;;;;;;;;;27.20;99.90;;;;;;4982665;28;19969;-79
2021/09/08 09:29:42;;;;;;;;;;;28.60;98.90;;;;;;4978680;28;19941;-81
2021/09/08 09:32:11;;;;;;;;;;;29.80;94.80;;;;;;4976958;28;19925;-80
2021/09/08 09:34:38;;;;;;;;;;;30.20;94.10;;;;;;4983015;28;19974;-82
2021/09/08 09:37:06;;;;;;;;;;;31.20;89.80;;;;;;4984897;28;19948;-81
2021/09/08 09:39:34;;;;;;;;;;;29.50;91.60;;;;;;4979999;28;20008;-81
2021/09/08 09:42:06;;;;;;;;;;;27.50;97.40;;;;;;4978765;28;20395;-82
2021/09/08 09:44:33;;;;;;;;;;;26.60;99.50;;;;;;4977339;28;20403;-80
2021/09/08 09:47:00;;;;;;;;;;;27.30;97.90;;;;;;4977760;28;20004;-80
2021/09/08 09:49:27;;;;;;;;;;;27.10;98.20;;;;;;4977293;28;19966;-82
2021/09/08 09:51:54;;;;;;;;;;;27.40;97.90;;;;;;4977250;28;19932;-81
2021/09/08 09:54:21;;;;;;;;;;;28.10;95.80;;;;;;4980529;28;20349;-80
2021/09/08 09:56:48;;;;;;;;;;;26.50;97.90;;;;;;4978419;28;20386;-83
2021/09/08 09:59:16;;;;;;;;;;;25.70;99.90;;;;;;4986434;28;20002;-81
2021/09/08 10:01:43;;;;;;;;;;;25.60;99.90;;;;;;4986447;28;20020;-86
2021/09/08 10:04:10;;;;;;;;;;;25.70;99.90;;;;;;4980338;28;19942;-82
2021/09/08 10:06:38;;;;;;;;;;;25.30;99.90;;;;;;4983289;28;19934;-76
2021/09/08 10:09:05;;;;;;;;;;;25.10;99.90;;;;;;4982377;28;19949;-78
2021/09/08 10:11:33;;;;;;;;;;;25.50;99.90;;;;;;4973988;28;19929;-77
2021/09/08 10:14:03;;;;;;;;;;;25.60;99.90;;;;;;4971516;28;19930;-79
2021/09/08 10:16:31;;;;;;;;;;;25.70;99.90;;;;;;4979030;28;19926;-79
2021/09/08 10:18:57;;;;;;;;;;;25.70;99.90;;;;;;4984331;28;20415;-84
2021/09/08 10:21:24;;;;;;;;;;;25.70;99.90;;;;;;4977028;28;19941;-76
2021/09/08 10:23:55;;;;;;;;;;;25.70;99.90;;;;;;4978475;28;19936;-76
2021/09/08 10:26:28;;;;;;;;;;;25.60;99.90;;;;;;4979425;28;19926;-75
2021/09/08 10:28:57;;;;;;;;;;;25.70;99.90;;;;;;4977679;28;20309;-78
2021/09/08 10:31:24;;;;;;;;;;;25.90;99.90;;;;;;4976932;28;19927;-75
2021/09/08 10:33:55;;;;;;;;;;;25.50;99.90;;;;;;4980825;28;20025;-80
2021/09/08 10:36:22;;;;;;;;;;;25.40;99.90;;;;;;4978529;28;19933;-75
2021/09/08 10:39:01;;;;;;;;;;;25.30;99.90;;;;;;4983242;28;19929;-80
2021/09/08 10:41:36;;;;;;;;;;;25.40;99.90;;;;;;4979647;28;20013;-81
2021/09/08 10:44:03;;;;;;;;;;;25.30;99.90;;;;;;4976530;28;20013;-84
2021/09/08 10:46:47;;;;;;;;;;;25.50;99.90;;;;;;4984655;28;20105;-82
2021/09/08 10:49:29;;;;;;;;;;;25.30;99.90;;;;;;4981267;28;19925;-77
2021/09/08 10:51:57;;;;;;;;;;;25.50;99.90;;;;;;4981406;28;20056;-79
2021/09/08 10:54:24;;;;;;;;;;;25.40;99.90;;;;;;4979510;28;20434;-82
2021/09/08 10:56:52;;;;;;;;;;;25.70;99.90;;;;;;4978199;28;19926;-80
2021/09/08 10:59:19;;;;;;;;;;;25.70;99.90;;;;;;4977108;28;19980;-79
2021/09/08 11:01:45;;;;;;;;;;;26.00;99.90;;;;;;4978218;28;20057;-79
2021/09/08 11:04:13;;;;;;;;;;;25.90;99.90;;;;;;4973514;28;19974;-78
2021/09/08 11:06:40;;;;;;;;;;;25.60;99.90;;;;;;4978155;28;20405;-81
2021/09/08 11:09:10;;;;;;;;;;;25.70;99.90;;;;;;4980298;28;19973;-81
2021/09/08 11:11:50;;;;;;;;;;;25.90;99.90;;;;;;4977550;28;20013;-81
2021/09/08 11:14:17;;;;;;;;;;;25.90;99.60;;;;;;4981252;28;20033;-81
2021/09/08 11:16:43;;;;;;;;;;;26.00;98.90;;;;;;4975282;28;20362;-82
2021/09/08 11:19:12;;;;;;;;;;;26.00;99.40;;;;;;4979931;28;20046;-81
2021/09/08 11:21:39;;;;;;;;;;;25.90;98.90;;;;;;4971953;28;20012;-82
2021/09/08 11:24:07;;;;;;;;;;;26.00;99.60;;;;;;4972930;28;20520;-82
2021/09/08 11:26:36;;;;;;;;;;;26.20;98.10;;;;;;4975875;28;19937;-78
2021/09/08 11:29:04;;;;;;;;;;;26.10;98.40;;;;;;4973221;28;20573;-78
2021/09/08 11:31:32;;;;;;;;;;;26.10;98.10;;;;;;4978866;28;19932;-78
2021/09/08 11:33:59;;;;;;;;;;;26.10;98.20;;;;;;4972304;28;20506;-78
2021/09/08 11:36:25;;;;;;;;;;;26.10;98.40;;;;;;4974495;28;20036;-83
2021/09/08 11:38:56;;;;;;;;;;;26.10;97.90;;;;;;4981081;28;20304;-80
2021/09/08 11:41:24;;;;;;;;;;;26.30;98.30;;;;;;4971775;28;19977;-80
2021/09/08 11:43:52;;;;;;;;;;;26.00;97.10;;;;;;4977268;28;20008;-81
2021/09/08 11:46:20;;;;;;;;;;;26.00;97.50;;;;;;4972933;28;19925;-80
2021/09/08 11:48:47;;;;;;;;;;;26.20;97.10;;;;;;4983699;28;19926;-79
2021/09/08 11:51:15;;;;;;;;;;;26.40;97.00;;;;;;4971902;28;19948;-78
2021/09/08 11:53:42;;;;;;;;;;;26.50;95.90;;;;;;4979571;28;20431;-83
2021/09/08 11:56:10;;;;;;;;;;;26.40;96.60;;;;;;4983017;28;19926;-80
2021/09/08 11:58:37;;;;;;;;;;;26.40;95.40;;;;;;4981864;28;19932;-78
2021/09/08 12:01:07;;;;;;;;;;;26.40;96.00;;;;;;4985311;28;19982;-79
2021/09/08 12:03:37;;;;;;;;;;;26.70;95.40;;;;;;4979040;28;20029;-78
2021/09/08 12:06:08;;;;;;;;;;;26.90;96.80;;;;;;4982227;28;19999;-82
2021/09/08 12:08:35;;;;;;;;;;;26.40;96.60;;;;;;4980005;28;20299;-85
2021/09/08 12:11:02;;;;;;;;;;;26.30;97.30;;;;;;4984671;28;20399;-83
2021/09/08 12:13:29;;;;;;;;;;;26.50;97.00;;;;;;4979573;28;19926;-80
2021/09/08 12:15:56;;;;;;;;;;;26.70;96.70;;;;;;4977786;28;20539;-80
2021/09/08 12:18:24;;;;;;;;;;;26.70;96.10;;;;;;4976653;28;19934;-80
2021/09/08 12:20:51;;;;;;;;;;;26.80;96.80;;;;;;4976433;28;20020;-80
2021/09/08 12:23:25;;;;;;;;;;;26.70;95.70;;;;;;4979410;28;19926;-80
2021/09/08 12:26:04;;;;;;;;;;;26.90;95.70;;;;;;4974555;28;19930;-80
2021/09/08 12:28:31;;;;;;;;;;;27.10;95.70;;;;;;4975431;28;19934;-80
2021/09/08 12:31:17;;;;;;;;;;;27.00;95.30;;;;;;4978602;28;19936;-84
2021/09/08 12:33:58;;;;;;;;;;;27.20;94.60;;;;;;4980965;28;19984;-89
2021/09/08 12:36:25;;;;;;;;;;;27.10;95.40;;;;;;4993732;28;20068;-88
2021/09/08 12:38:52;;;;;;;;;;;26.90;96.60;;;;;;4987168;28;19926;-80
2021/09/08 12:41:20;;;;;;;;;;;27.30;95.00;;;;;;4977238;28;19926;-81
2021/09/08 12:43:49;;;;;;;;;;;27.30;95.60;;;;;;4992447;28;19930;-81
2021/09/08 12:46:16;;;;;;;;;;;27.20;94.20;;;;;;4992991;28;20364;-81
2021/09/08 12:48:43;;;;;;;;;;;27.10;94.60;;;;;;4977906;28;19930;-83
2021/09/08 12:51:11;;;;;;;;;;;27.00;95.20;;;;;;4975654;28;19969;-79
2021/09/08 12:53:38;;;;;;;;;;;27.40;95.60;;;;;;4977453;28;19933;-80
2021/09/08 12:56:05;;;;;;;;;;;27.70;95.90;;;;;;4977158;28;19952;-82
2021/09/08 12:58:31;;;;;;;;;;;27.50;94.60;;;;;;4976771;28;19948;-79
2021/09/08 13:00:58;;;;;;;;;;;27.50;94.30;;;;;;4971017;28;19940;-80
2021/09/08 13:03:25;;;;;;;;;;;27.40;94.50;;;;;;4976905;28;19930;-81
2021/09/08 13:05:51;;;;;;;;;;;27.20;94.10;;;;;;4981187;28;20004;-80
2021/09/08 13:08:19;;;;;;;;;;;27.30;93.90;;;;;;4974874;28;20024;-82
2021/09/08 13:10:47;;;;;;;;;;;27.20;94.60;;;;;;4978168;28;19965;-81
2021/09/08 13:13:13;;;;;;;;;;;27.10;94.60;;;;;;4966660;28;19976;-81
2021/09/08 13:15:40;;;;;;;;;;;27.50;94.80;;;;;;4976813;28;20402;-80
2021/09/08 13:18:07;;;;;;;;;;;27.80;93.20;;;;;;4974744;28;20040;-80
2021/09/08 13:20:34;;;;;;;;;;;27.90;91.90;;;;;;4979917;28;20019;-79
2021/09/08 13:23:00;;;;;;;;;;;28.00;91.60;;;;;;4980167;28;20017;-81
2021/09/08 13:25:28;;;;;;;;;;;27.90;92.40;;;;;;4985735;28;19926;-81
2021/09/08 13:27:55;;;;;;;;;;;28.10;91.60;;;;;;4977080;28;20025;-81
2021/09/08 13:30:22;;;;;;;;;;;27.70;91.60;;;;;;4981515;28;19985;-79
2021/09/08 13:32:48;;;;;;;;;;;27.80;90.60;;;;;;4978914;28;20025;-81
2021/09/08 13:35:16;;;;;;;;;;;28.10;89.50;;;;;;4971454;28;19930;-80
2021/09/08 13:37:43;;;;;;;;;;;28.20;87.60;;;;;;4972746;28;19930;-80
2021/09/08 13:40:10;;;;;;;;;;;28.30;85.70;;;;;;4973146;28;19937;-80
2021/09/08 13:42:38;;;;;;;;;;;28.30;86.80;;;;;;4976958;28;19941;-82
2021/09/08 13:45:05;;;;;;;;;;;27.90;88.00;;;;;;4979652;28;19932;-81
2021/09/08 13:47:32;;;;;;;;;;;27.90;86.80;;;;;;4974253;28;20460;-81
2021/09/08 13:49:59;;;;;;;;;;;27.90;85.50;;;;;;4979700;28;20029;-82
2021/09/08 13:52:26;;;;;;;;;;;27.90;86.30;;;;;;4985191;28;20024;-84
2021/09/08 13:54:54;;;;;;;;;;;28.00;86.80;;;;;;4975484;28;19932;-81
2021/09/08 13:57:21;;;;;;;;;;;28.10;87.00;;;;;;4982324;28;19926;-81
2021/09/08 13:59:49;;;;;;;;;;;27.80;85.30;;;;;;4977277;28;19925;-82
2021/09/08 14:02:15;;;;;;;;;;;27.90;86.80;;;;;;4981916;28;20020;-82
2021/09/08 14:04:42;;;;;;;;;;;28.10;83.50;;;;;;4978338;28;19973;-82
2021/09/08 14:07:09;;;;;;;;;;;27.90;80.80;;;;;;4981835;28;20008;-77
2021/09/08 14:09:35;;;;;;;;;;;27.80;81.10;;;;;;4983831;28;20407;-81
2021/09/08 14:12:02;;;;;;;;;;;27.90;80.60;;;;;;4978154;28;19933;-82
2021/09/08 14:14:29;;;;;;;;;;;28.10;81.90;;;;;;4974894;28;19933;-82
2021/09/08 14:16:57;;;;;;;;;;;28.30;77.20;;;;;;4984027;28;20013;-82